Etusivu
METAR-TAF:

METAR-TAF

Lentoasemat :

Greenville, Alabama, Yhdysvallat

Leveyspiiri: 31-50-44N, Pituuspiiri: 086-36-38W, korkeus merenpinnasta: 138 m

Tämänhetkinen sää

Tämä raportti tehtiin 44 minuuttia sitten, kello 11.56 UTC
Tuuli 5 kn idästä/kaakosta
Lämpötila 12°C
Kosteus 54%
Ilmanpaine 1015 hPa
Näkyvyys: 16.1 km
Hajanaisia pilviä 2100 ft:n korkeudessa
Hajonneita pilviä 2700 ft:n korkeudessa
Pilvistä 8500 ft:n korkeudessa

METAR: KPRN 241156Z AUTO 12005KT 10SM SCT021 BKN027 OVC085 12/03 A2998 RMK AO2 SLP152 T01170033 10122 20117 58012 $

Aika: 06:40 (12:40 UTC)


TAF: puuttuu

Säähavainnot ja -ennusteet yli 4000 lentoasemalta (METAR- ja TAF-raportit).

Käytössä olevat sääasemat on merkitty karttaan keltaisilla ja punaisilla pisteillä.

Aseta hiiri pisteen päälle nähdäksesi sääaseman nimen.

Klikkaa sitten nähdäksesi säähavainnot ja -ennusteet.

Kartan vaihtaminen: klikkaa mustalla rastilla varustettuja vihreitä pisteitä, niin voit zoomata sisään; viivalla varustettua vihreää pistettä, niin voit zoomata ulos tai vihreitä nuolia, niin pääset viereisille kartoille.


METAR-TAF: